sensor_id;sensor_type;location;lat;lon;timestamp;P1;durP1;ratioP1;P2;durP2;ratioP2
47329;SDS011;33060;50.178;7.570;2023-02-28T00:01:34;2.93;;;1.93;;
47329;SDS011;33060;50.178;7.570;2023-02-28T00:04:02;3.10;;;1.97;;
47329;SDS011;33060;50.178;7.570;2023-02-28T00:06:29;6.13;;;2.00;;
47329;SDS011;33060;50.178;7.570;2023-02-28T00:08:56;4.57;;;2.30;;
47329;SDS011;33060;50.178;7.570;2023-02-28T00:11:23;2.67;;;2.00;;
47329;SDS011;33060;50.178;7.570;2023-02-28T00:13:49;2.67;;;1.93;;
47329;SDS011;33060;50.178;7.570;2023-02-28T00:16:20;2.77;;;2.07;;
47329;SDS011;33060;50.178;7.570;2023-02-28T00:18:48;2.93;;;2.40;;
47329;SDS011;33060;50.178;7.570;2023-02-28T00:21:16;3.10;;;2.30;;
47329;SDS011;33060;50.178;7.570;2023-02-28T00:23:44;3.97;;;2.47;;
47329;SDS011;33060;50.178;7.570;2023-02-28T00:26:10;3.60;;;2.07;;
47329;SDS011;33060;50.178;7.570;2023-02-28T00:28:40;4.10;;;2.50;;
47329;SDS011;33060;50.178;7.570;2023-02-28T00:31:06;3.93;;;2.53;;
47329;SDS011;33060;50.178;7.570;2023-02-28T00:33:34;3.40;;;2.47;;
47329;SDS011;33060;50.178;7.570;2023-02-28T00:36:05;4.07;;;2.50;;
47329;SDS011;33060;50.178;7.570;2023-02-28T00:38:35;3.30;;;2.53;;
47329;SDS011;33060;50.178;7.570;2023-02-28T00:41:02;4.40;;;2.73;;
47329;SDS011;33060;50.178;7.570;2023-02-28T00:43:34;4.33;;;2.43;;
47329;SDS011;33060;50.178;7.570;2023-02-28T00:46:03;2.90;;;2.30;;
47329;SDS011;33060;50.178;7.570;2023-02-28T00:48:30;4.20;;;2.30;;
47329;SDS011;33060;50.178;7.570;2023-02-28T00:50:57;3.40;;;2.50;;
47329;SDS011;33060;50.178;7.570;2023-02-28T00:53:24;4.47;;;2.73;;
47329;SDS011;33060;50.178;7.570;2023-02-28T00:55:51;5.10;;;2.93;;
47329;SDS011;33060;50.178;7.570;2023-02-28T00:58:17;4.90;;;2.80;;
47329;SDS011;33060;50.178;7.570;2023-02-28T01:00:44;4.37;;;2.77;;
47329;SDS011;33060;50.178;7.570;2023-02-28T01:03:19;4.63;;;2.80;;
47329;SDS011;33060;50.178;7.570;2023-02-28T01:05:47;4.57;;;2.97;;
47329;SDS011;33060;50.178;7.570;2023-02-28T01:08:15;4.60;;;2.93;;
47329;SDS011;33060;50.178;7.570;2023-02-28T01:10:42;3.60;;;3.03;;
47329;SDS011;33060;50.178;7.570;2023-02-28T01:13:09;6.13;;;3.00;;
47329;SDS011;33060;50.178;7.570;2023-02-28T01:15:36;4.80;;;2.97;;
47329;SDS011;33060;50.178;7.570;2023-02-28T01:18:12;3.57;;;3.03;;
47329;SDS011;33060;50.178;7.570;2023-02-28T01:20:39;5.63;;;3.50;;
47329;SDS011;33060;50.178;7.570;2023-02-28T01:23:07;4.00;;;3.10;;
47329;SDS011;33060;50.178;7.570;2023-02-28T01:25:35;5.67;;;3.73;;
47329;SDS011;33060;50.178;7.570;2023-02-28T01:28:03;6.13;;;3.53;;
47329;SDS011;33060;50.178;7.570;2023-02-28T01:30:33;5.63;;;3.30;;
47329;SDS011;33060;50.178;7.570;2023-02-28T01:33:00;5.10;;;3.50;;
47329;SDS011;33060;50.178;7.570;2023-02-28T01:35:26;5.70;;;3.80;;
47329;SDS011;33060;50.178;7.570;2023-02-28T01:37:53;6.10;;;3.90;;
47329;SDS011;33060;50.178;7.570;2023-02-28T01:40:20;6.43;;;3.67;;
47329;SDS011;33060;50.178;7.570;2023-02-28T01:42:47;4.67;;;3.67;;
47329;SDS011;33060;50.178;7.570;2023-02-28T01:45:18;7.33;;;4.30;;
47329;SDS011;33060;50.178;7.570;2023-02-28T01:47:59;5.43;;;3.77;;
47329;SDS011;33060;50.178;7.570;2023-02-28T01:50:31;6.20;;;4.30;;
47329;SDS011;33060;50.178;7.570;2023-02-28T01:53:04;6.93;;;4.60;;
47329;SDS011;33060;50.178;7.570;2023-02-28T01:55:33;5.90;;;4.10;;
47329;SDS011;33060;50.178;7.570;2023-02-28T01:58:02;8.70;;;4.33;;
47329;SDS011;33060;50.178;7.570;2023-02-28T02:00:32;6.67;;;4.43;;
47329;SDS011;33060;50.178;7.570;2023-02-28T02:03:00;6.27;;;4.43;;
47329;SDS011;33060;50.178;7.570;2023-02-28T02:05:34;6.60;;;4.33;;
47329;SDS011;33060;50.178;7.570;2023-02-28T02:08:09;6.57;;;4.37;;
47329;SDS011;33060;50.178;7.570;2023-02-28T02:10:43;6.53;;;4.43;;
47329;SDS011;33060;50.178;7.570;2023-02-28T02:18:52;6.40;;;4.87;;
47329;SDS011;33060;50.178;7.570;2023-02-28T02:27:14;5.87;;;4.80;;
47329;SDS011;33060;50.178;7.570;2023-02-28T02:29:51;5.93;;;4.30;;
47329;SDS011;33060;50.178;7.570;2023-02-28T02:35:27;6.80;;;4.87;;
47329;SDS011;33060;50.178;7.570;2023-02-28T02:41:01;9.17;;;5.90;;
47329;SDS011;33060;50.178;7.570;2023-02-28T02:43:44;10.37;;;5.37;;
47329;SDS011;33060;50.178;7.570;2023-02-28T02:48:54;5.87;;;4.13;;
47329;SDS011;33060;50.178;7.570;2023-02-28T02:51:25;6.67;;;4.77;;
47329;SDS011;33060;50.178;7.570;2023-02-28T02:53:57;6.63;;;5.27;;
47329;SDS011;33060;50.178;7.570;2023-02-28T02:56:32;7.13;;;5.63;;
47329;SDS011;33060;50.178;7.570;2023-02-28T02:59:03;8.97;;;5.23;;
47329;SDS011;33060;50.178;7.570;2023-02-28T03:01:33;6.77;;;4.83;;
47329;SDS011;33060;50.178;7.570;2023-02-28T03:04:03;5.97;;;5.07;;
47329;SDS011;33060;50.178;7.570;2023-02-28T03:06:33;6.00;;;5.20;;
47329;SDS011;33060;50.178;7.570;2023-02-28T03:09:01;9.00;;;5.13;;
47329;SDS011;33060;50.178;7.570;2023-02-28T03:11:28;6.83;;;5.20;;
47329;SDS011;33060;50.178;7.570;2023-02-28T03:14:05;6.40;;;4.60;;
47329;SDS011;33060;50.178;7.570;2023-02-28T03:25:32;7.03;;;5.73;;
47329;SDS011;33060;50.178;7.570;2023-02-28T03:30:45;6.90;;;5.03;;
47329;SDS011;33060;50.178;7.570;2023-02-28T03:33:21;7.63;;;5.37;;
47329;SDS011;33060;50.178;7.570;2023-02-28T03:35:54;7.00;;;5.47;;
47329;SDS011;33060;50.178;7.570;2023-02-28T03:38:37;7.20;;;5.23;;
47329;SDS011;33060;50.178;7.570;2023-02-28T03:41:17;7.07;;;5.30;;
47329;SDS011;33060;50.178;7.570;2023-02-28T03:43:51;6.77;;;5.13;;
47329;SDS011;33060;50.178;7.570;2023-02-28T03:46:22;8.20;;;5.40;;
47329;SDS011;33060;50.178;7.570;2023-02-28T03:48:56;6.93;;;4.90;;
47329;SDS011;33060;50.178;7.570;2023-02-28T03:51:28;6.60;;;4.63;;
47329;SDS011;33060;50.178;7.570;2023-02-28T03:53:58;5.50;;;4.90;;
47329;SDS011;33060;50.178;7.570;2023-02-28T03:56:33;6.30;;;4.97;;
47329;SDS011;33060;50.178;7.570;2023-02-28T03:59:05;6.57;;;4.73;;
47329;SDS011;33060;50.178;7.570;2023-02-28T04:01:43;6.43;;;5.10;;
47329;SDS011;33060;50.178;7.570;2023-02-28T04:04:11;5.77;;;5.00;;
47329;SDS011;33060;50.178;7.570;2023-02-28T04:06:39;7.50;;;5.43;;
47329;SDS011;33060;50.178;7.570;2023-02-28T04:09:07;6.33;;;5.07;;
47329;SDS011;33060;50.178;7.570;2023-02-28T04:11:39;8.13;;;5.37;;
47329;SDS011;33060;50.178;7.570;2023-02-28T04:14:08;6.63;;;5.53;;
47329;SDS011;33060;50.178;7.570;2023-02-28T04:16:36;6.70;;;5.17;;
47329;SDS011;33060;50.178;7.570;2023-02-28T04:19:04;9.40;;;5.50;;
47329;SDS011;33060;50.178;7.570;2023-02-28T04:21:33;8.10;;;5.60;;
47329;SDS011;33060;50.178;7.570;2023-02-28T04:24:08;6.93;;;5.23;;
47329;SDS011;33060;50.178;7.570;2023-02-28T04:26:41;5.70;;;4.80;;
47329;SDS011;33060;50.178;7.570;2023-02-28T04:29:11;6.63;;;5.27;;
47329;SDS011;33060;50.178;7.570;2023-02-28T04:31:38;7.27;;;5.77;;
47329;SDS011;33060;50.178;7.570;2023-02-28T04:34:06;6.20;;;5.33;;
47329;SDS011;33060;50.178;7.570;2023-02-28T04:36:32;7.00;;;5.43;;
47329;SDS011;33060;50.178;7.570;2023-02-28T04:38:59;6.10;;;5.27;;
47329;SDS011;33060;50.178;7.570;2023-02-28T04:41:26;6.33;;;5.53;;
47329;SDS011;33060;50.178;7.570;2023-02-28T04:43:56;7.63;;;6.27;;
47329;SDS011;33060;50.178;7.570;2023-02-28T04:46:23;7.73;;;5.30;;
47329;SDS011;33060;50.178;7.570;2023-02-28T04:48:50;5.17;;;4.53;;
47329;SDS011;33060;50.178;7.570;2023-02-28T04:51:17;7.00;;;4.83;;
47329;SDS011;33060;50.178;7.570;2023-02-28T04:53:45;5.80;;;4.47;;
47329;SDS011;33060;50.178;7.570;2023-02-28T04:56:13;5.97;;;4.63;;
47329;SDS011;33060;50.178;7.570;2023-02-28T04:58:41;5.53;;;4.43;;
47329;SDS011;33060;50.178;7.570;2023-02-28T05:01:21;5.30;;;4.27;;
47329;SDS011;33060;50.178;7.570;2023-02-28T05:03:54;6.10;;;4.83;;
47329;SDS011;33060;50.178;7.570;2023-02-28T05:06:22;6.80;;;5.10;;
47329;SDS011;33060;50.178;7.570;2023-02-28T05:08:51;5.93;;;4.33;;
47329;SDS011;33060;50.178;7.570;2023-02-28T05:11:20;6.30;;;4.30;;
47329;SDS011;33060;50.178;7.570;2023-02-28T05:14:02;5.97;;;4.50;;
47329;SDS011;33060;50.178;7.570;2023-02-28T05:16:30;5.70;;;4.50;;
47329;SDS011;33060;50.178;7.570;2023-02-28T05:18:58;7.63;;;4.33;;
47329;SDS011;33060;50.178;7.570;2023-02-28T05:24:03;5.30;;;4.63;;
47329;SDS011;33060;50.178;7.570;2023-02-28T05:26:36;8.20;;;5.23;;
47329;SDS011;33060;50.178;7.570;2023-02-28T05:29:05;5.93;;;5.30;;
47329;SDS011;33060;50.178;7.570;2023-02-28T05:31:31;8.23;;;4.47;;
47329;SDS011;33060;50.178;7.570;2023-02-28T05:33:59;8.37;;;5.83;;
47329;SDS011;33060;50.178;7.570;2023-02-28T05:36:25;7.37;;;5.57;;
47329;SDS011;33060;50.178;7.570;2023-02-28T05:38:52;6.67;;;4.50;;
47329;SDS011;33060;50.178;7.570;2023-02-28T05:41:19;6.47;;;4.80;;
47329;SDS011;33060;50.178;7.570;2023-02-28T05:43:46;6.80;;;4.57;;
47329;SDS011;33060;50.178;7.570;2023-02-28T05:46:14;6.07;;;5.17;;
47329;SDS011;33060;50.178;7.570;2023-02-28T05:48:41;9.07;;;5.80;;
47329;SDS011;33060;50.178;7.570;2023-02-28T05:51:09;9.63;;;5.30;;
47329;SDS011;33060;50.178;7.570;2023-02-28T05:53:35;6.83;;;4.83;;
47329;SDS011;33060;50.178;7.570;2023-02-28T05:56:03;6.57;;;4.93;;
47329;SDS011;33060;50.178;7.570;2023-02-28T05:58:30;8.13;;;5.33;;
47329;SDS011;33060;50.178;7.570;2023-02-28T06:00:58;7.13;;;5.57;;
47329;SDS011;33060;50.178;7.570;2023-02-28T06:03:24;8.30;;;5.93;;
47329;SDS011;33060;50.178;7.570;2023-02-28T06:05:52;5.80;;;4.30;;
47329;SDS011;33060;50.178;7.570;2023-02-28T06:08:18;7.70;;;5.53;;
47329;SDS011;33060;50.178;7.570;2023-02-28T06:10:45;6.60;;;5.53;;
47329;SDS011;33060;50.178;7.570;2023-02-28T06:13:12;7.33;;;4.90;;
47329;SDS011;33060;50.178;7.570;2023-02-28T06:15:39;6.33;;;4.93;;
47329;SDS011;33060;50.178;7.570;2023-02-28T06:18:05;6.60;;;5.03;;
47329;SDS011;33060;50.178;7.570;2023-02-28T06:20:32;6.43;;;5.30;;
47329;SDS011;33060;50.178;7.570;2023-02-28T06:22:59;7.77;;;5.43;;
47329;SDS011;33060;50.178;7.570;2023-02-28T06:25:27;6.63;;;5.60;;
47329;SDS011;33060;50.178;7.570;2023-02-28T06:27:54;5.93;;;5.10;;
47329;SDS011;33060;50.178;7.570;2023-02-28T06:30:21;7.70;;;4.97;;
47329;SDS011;33060;50.178;7.570;2023-02-28T06:32:51;6.07;;;5.20;;
47329;SDS011;33060;50.178;7.570;2023-02-28T06:35:18;6.97;;;5.47;;
47329;SDS011;33060;50.178;7.570;2023-02-28T06:37:45;7.60;;;5.23;;
47329;SDS011;33060;50.178;7.570;2023-02-28T06:40:13;7.30;;;5.17;;
47329;SDS011;33060;50.178;7.570;2023-02-28T06:42:41;7.77;;;5.20;;
47329;SDS011;33060;50.178;7.570;2023-02-28T06:45:08;5.53;;;4.50;;
47329;SDS011;33060;50.178;7.570;2023-02-28T06:47:36;8.27;;;5.90;;
47329;SDS011;33060;50.178;7.570;2023-02-28T06:50:08;6.17;;;5.33;;
47329;SDS011;33060;50.178;7.570;2023-02-28T06:52:36;7.33;;;5.53;;
47329;SDS011;33060;50.178;7.570;2023-02-28T06:55:06;6.60;;;5.50;;
47329;SDS011;33060;50.178;7.570;2023-02-28T06:57:34;6.70;;;5.60;;
47329;SDS011;33060;50.178;7.570;2023-02-28T07:00:07;6.20;;;4.97;;
47329;SDS011;33060;50.178;7.570;2023-02-28T07:02:35;6.57;;;5.27;;
47329;SDS011;33060;50.178;7.570;2023-02-28T07:05:04;7.03;;;5.20;;
47329;SDS011;33060;50.178;7.570;2023-02-28T07:07:32;6.00;;;4.77;;
47329;SDS011;33060;50.178;7.570;2023-02-28T07:09:58;6.93;;;4.83;;
47329;SDS011;33060;50.178;7.570;2023-02-28T07:12:25;6.60;;;5.43;;
47329;SDS011;33060;50.178;7.570;2023-02-28T07:14:51;5.57;;;4.60;;
47329;SDS011;33060;50.178;7.570;2023-02-28T07:17:18;8.13;;;4.60;;
47329;SDS011;33060;50.178;7.570;2023-02-28T07:19:45;6.90;;;4.57;;
47329;SDS011;33060;50.178;7.570;2023-02-28T07:22:11;5.17;;;4.13;;
47329;SDS011;33060;50.178;7.570;2023-02-28T07:24:41;6.67;;;4.67;;
47329;SDS011;33060;50.178;7.570;2023-02-28T07:27:07;9.60;;;4.90;;
47329;SDS011;33060;50.178;7.570;2023-02-28T07:29:34;10.03;;;4.50;;
47329;SDS011;33060;50.178;7.570;2023-02-28T07:32:00;7.30;;;5.23;;
47329;SDS011;33060;50.178;7.570;2023-02-28T07:34:27;5.60;;;4.13;;
47329;SDS011;33060;50.178;7.570;2023-02-28T07:36:54;6.30;;;4.63;;
47329;SDS011;33060;50.178;7.570;2023-02-28T07:39:21;6.00;;;4.70;;
47329;SDS011;33060;50.178;7.570;2023-02-28T07:41:48;6.53;;;4.33;;
47329;SDS011;33060;50.178;7.570;2023-02-28T07:44:15;6.67;;;4.73;;
47329;SDS011;33060;50.178;7.570;2023-02-28T07:46:42;5.53;;;4.37;;
47329;SDS011;33060;50.178;7.570;2023-02-28T07:49:08;6.23;;;4.40;;
47329;SDS011;33060;50.178;7.570;2023-02-28T07:51:37;6.67;;;4.53;;
47329;SDS011;33060;50.178;7.570;2023-02-28T07:54:04;5.10;;;4.00;;
47329;SDS011;33060;50.178;7.570;2023-02-28T07:56:30;5.57;;;4.40;;
47329;SDS011;33060;50.178;7.570;2023-02-28T07:58:58;4.20;;;3.70;;
47329;SDS011;33060;50.178;7.570;2023-02-28T08:01:24;4.43;;;3.77;;
47329;SDS011;33060;50.178;7.570;2023-02-28T08:03:51;5.73;;;4.10;;
47329;SDS011;33060;50.178;7.570;2023-02-28T08:06:19;5.33;;;4.13;;
47329;SDS011;33060;50.178;7.570;2023-02-28T08:08:47;5.50;;;4.13;;
47329;SDS011;33060;50.178;7.570;2023-02-28T08:11:15;4.67;;;4.03;;
47329;SDS011;33060;50.178;7.570;2023-02-28T08:13:43;4.47;;;3.60;;
47329;SDS011;33060;50.178;7.570;2023-02-28T08:16:11;4.80;;;3.67;;
47329;SDS011;33060;50.178;7.570;2023-02-28T08:18:41;4.57;;;3.90;;
47329;SDS011;33060;50.178;7.570;2023-02-28T08:21:08;5.27;;;4.10;;
47329;SDS011;33060;50.178;7.570;2023-02-28T08:23:36;5.53;;;3.83;;
47329;SDS011;33060;50.178;7.570;2023-02-28T08:26:03;4.50;;;3.60;;
47329;SDS011;33060;50.178;7.570;2023-02-28T08:28:30;4.30;;;3.17;;
47329;SDS011;33060;50.178;7.570;2023-02-28T08:30:57;4.13;;;3.60;;
47329;SDS011;33060;50.178;7.570;2023-02-28T08:33:24;4.47;;;4.00;;
47329;SDS011;33060;50.178;7.570;2023-02-28T08:35:52;6.10;;;3.67;;
47329;SDS011;33060;50.178;7.570;2023-02-28T08:38:23;4.80;;;3.90;;
47329;SDS011;33060;50.178;7.570;2023-02-28T08:40:49;4.93;;;3.80;;
47329;SDS011;33060;50.178;7.570;2023-02-28T08:43:23;4.07;;;3.60;;
47329;SDS011;33060;50.178;7.570;2023-02-28T08:45:53;4.53;;;3.70;;
47329;SDS011;33060;50.178;7.570;2023-02-28T08:48:23;4.63;;;3.57;;
47329;SDS011;33060;50.178;7.570;2023-02-28T08:50:55;4.73;;;3.67;;
47329;SDS011;33060;50.178;7.570;2023-02-28T08:53:32;4.43;;;2.87;;
47329;SDS011;33060;50.178;7.570;2023-02-28T08:56:00;4.07;;;3.20;;
47329;SDS011;33060;50.178;7.570;2023-02-28T08:58:29;4.87;;;3.57;;
47329;SDS011;33060;50.178;7.570;2023-02-28T09:00:56;6.33;;;3.17;;
47329;SDS011;33060;50.178;7.570;2023-02-28T09:03:23;4.43;;;3.03;;
47329;SDS011;33060;50.178;7.570;2023-02-28T09:05:58;4.30;;;3.33;;
47329;SDS011;33060;50.178;7.570;2023-02-28T09:08:27;4.40;;;3.10;;
47329;SDS011;33060;50.178;7.570;2023-02-28T09:10:54;5.93;;;3.80;;
47329;SDS011;33060;50.178;7.570;2023-02-28T09:13:23;4.20;;;3.33;;
47329;SDS011;33060;50.178;7.570;2023-02-28T09:15:51;4.60;;;2.70;;
47329;SDS011;33060;50.178;7.570;2023-02-28T09:18:18;3.87;;;3.23;;
47329;SDS011;33060;50.178;7.570;2023-02-28T09:20:45;3.90;;;3.03;;
47329;SDS011;33060;50.178;7.570;2023-02-28T09:23:12;4.37;;;3.30;;
47329;SDS011;33060;50.178;7.570;2023-02-28T09:25:46;5.30;;;3.70;;
47329;SDS011;33060;50.178;7.570;2023-02-28T09:28:14;5.33;;;3.40;;
47329;SDS011;33060;50.178;7.570;2023-02-28T09:30:44;4.97;;;3.50;;
47329;SDS011;33060;50.178;7.570;2023-02-28T09:33:14;3.23;;;2.90;;
47329;SDS011;33060;50.178;7.570;2023-02-28T09:35:41;6.33;;;4.00;;
47329;SDS011;33060;50.178;7.570;2023-02-28T09:38:09;3.83;;;3.30;;
47329;SDS011;33060;50.178;7.570;2023-02-28T09:40:37;4.03;;;3.23;;
47329;SDS011;33060;50.178;7.570;2023-02-28T09:43:12;5.03;;;3.37;;
47329;SDS011;33060;50.178;7.570;2023-02-28T09:45:42;4.07;;;2.80;;
47329;SDS011;33060;50.178;7.570;2023-02-28T09:48:20;4.57;;;3.37;;
47329;SDS011;33060;50.178;7.570;2023-02-28T09:50:51;4.70;;;3.73;;
47329;SDS011;33060;50.178;7.570;2023-02-28T09:53:31;4.97;;;3.33;;
47329;SDS011;33060;50.178;7.570;2023-02-28T09:58:58;4.30;;;3.13;;
47329;SDS011;33060;50.178;7.570;2023-02-28T10:04:03;5.30;;;3.73;;
47329;SDS011;33060;50.178;7.570;2023-02-28T10:06:48;3.63;;;3.13;;
47329;SDS011;33060;50.178;7.570;2023-02-28T10:09:24;5.57;;;3.23;;
47329;SDS011;33060;50.178;7.570;2023-02-28T10:11:54;3.93;;;3.33;;
47329;SDS011;33060;50.178;7.570;2023-02-28T10:14:27;4.07;;;3.20;;
47329;SDS011;33060;50.178;7.570;2023-02-28T10:17:02;4.13;;;3.10;;
47329;SDS011;33060;50.178;7.570;2023-02-28T10:19:53;4.80;;;3.30;;
47329;SDS011;33060;50.178;7.570;2023-02-28T10:22:34;4.83;;;3.27;;
47329;SDS011;33060;50.178;7.570;2023-02-28T10:25:05;4.20;;;2.83;;
47329;SDS011;33060;50.178;7.570;2023-02-28T10:27:46;3.97;;;3.00;;
47329;SDS011;33060;50.178;7.570;2023-02-28T10:30:12;4.30;;;3.03;;
47329;SDS011;33060;50.178;7.570;2023-02-28T10:32:40;3.57;;;2.90;;
47329;SDS011;33060;50.178;7.570;2023-02-28T10:35:17;3.40;;;2.93;;
47329;SDS011;33060;50.178;7.570;2023-02-28T10:37:47;3.93;;;2.90;;
47329;SDS011;33060;50.178;7.570;2023-02-28T10:45:33;4.23;;;3.10;;
47329;SDS011;33060;50.178;7.570;2023-02-28T10:48:24;4.80;;;3.23;;
47329;SDS011;33060;50.178;7.570;2023-02-28T10:50:55;3.80;;;2.80;;
47329;SDS011;33060;50.178;7.570;2023-02-28T10:56:14;3.60;;;2.97;;
47329;SDS011;33060;50.178;7.570;2023-02-28T10:58:52;4.57;;;3.10;;
47329;SDS011;33060;50.178;7.570;2023-02-28T11:07:18;4.03;;;3.20;;
47329;SDS011;33060;50.178;7.570;2023-02-28T11:09:53;4.03;;;3.13;;
47329;SDS011;33060;50.178;7.570;2023-02-28T11:12:37;5.70;;;3.43;;
47329;SDS011;33060;50.178;7.570;2023-02-28T11:17:53;3.47;;;3.10;;
47329;SDS011;33060;50.178;7.570;2023-02-28T11:20:23;4.17;;;3.30;;
47329;SDS011;33060;50.178;7.570;2023-02-28T11:22:52;3.87;;;3.10;;
47329;SDS011;33060;50.178;7.570;2023-02-28T11:25:23;4.00;;;3.53;;
47329;SDS011;33060;50.178;7.570;2023-02-28T11:27:56;4.27;;;3.50;;
47329;SDS011;33060;50.178;7.570;2023-02-28T11:30:39;4.13;;;3.17;;
47329;SDS011;33060;50.178;7.570;2023-02-28T11:33:25;4.03;;;3.33;;
47329;SDS011;33060;50.178;7.570;2023-02-28T11:36:00;3.67;;;3.17;;
47329;SDS011;33060;50.178;7.570;2023-02-28T11:38:31;4.90;;;3.20;;
47329;SDS011;33060;50.178;7.570;2023-02-28T11:46:41;4.27;;;3.37;;
47329;SDS011;33060;50.178;7.570;2023-02-28T12:05:38;6.07;;;3.67;;
47329;SDS011;33060;50.178;7.570;2023-02-28T12:27:25;4.20;;;3.70;;
47329;SDS011;33060;50.178;7.570;2023-02-28T12:29:59;4.07;;;3.67;;
47329;SDS011;33060;50.178;7.570;2023-02-28T12:32:32;4.87;;;3.83;;
47329;SDS011;33060;50.178;7.570;2023-02-28T12:43:09;4.83;;;3.93;;
47329;SDS011;33060;50.178;7.570;2023-02-28T12:45:58;5.27;;;3.60;;
47329;SDS011;33060;50.178;7.570;2023-02-28T12:48:31;4.23;;;3.83;;
47329;SDS011;33060;50.178;7.570;2023-02-28T12:51:04;4.60;;;4.03;;
47329;SDS011;33060;50.178;7.570;2023-02-28T12:56:17;4.47;;;3.80;;
47329;SDS011;33060;50.178;7.570;2023-02-28T12:58:56;5.00;;;3.67;;
47329;SDS011;33060;50.178;7.570;2023-02-28T13:01:38;4.70;;;3.80;;
47329;SDS011;33060;50.178;7.570;2023-02-28T13:09:33;6.10;;;4.20;;
47329;SDS011;33060;50.178;7.570;2023-02-28T13:12:00;4.43;;;4.03;;
47329;SDS011;33060;50.178;7.570;2023-02-28T13:14:35;5.20;;;4.03;;
47329;SDS011;33060;50.178;7.570;2023-02-28T13:19:40;5.57;;;4.30;;
47329;SDS011;33060;50.178;7.570;2023-02-28T13:24:57;5.07;;;4.40;;
47329;SDS011;33060;50.178;7.570;2023-02-28T13:27:34;4.60;;;4.13;;
47329;SDS011;33060;50.178;7.570;2023-02-28T13:34:04;5.80;;;3.23;;
47329;SDS011;33060;50.178;7.570;2023-02-28T13:38:42;4.97;;;3.70;;
47329;SDS011;33060;50.178;7.570;2023-02-28T13:46:29;6.57;;;4.43;;
47329;SDS011;33060;50.178;7.570;2023-02-28T13:48:56;5.93;;;4.17;;
47329;SDS011;33060;50.178;7.570;2023-02-28T13:52:19;6.03;;;4.40;;
47329;SDS011;33060;50.178;7.570;2023-02-28T14:05:44;7.47;;;4.57;;
47329;SDS011;33060;50.178;7.570;2023-02-28T14:08:17;6.27;;;4.33;;
47329;SDS011;33060;50.178;7.570;2023-02-28T14:10:47;5.03;;;4.53;;
47329;SDS011;33060;50.178;7.570;2023-02-28T14:16:05;5.00;;;4.33;;
47329;SDS011;33060;50.178;7.570;2023-02-28T14:18:34;5.50;;;4.90;;
47329;SDS011;33060;50.178;7.570;2023-02-28T14:21:14;6.33;;;4.70;;
47329;SDS011;33060;50.178;7.570;2023-02-28T14:29:29;6.07;;;4.67;;
47329;SDS011;33060;50.178;7.570;2023-02-28T14:32:13;5.93;;;4.77;;
47329;SDS011;33060;50.178;7.570;2023-02-28T14:34:51;5.53;;;4.53;;
47329;SDS011;33060;50.178;7.570;2023-02-28T14:37:41;5.90;;;4.97;;
47329;SDS011;33060;50.178;7.570;2023-02-28T14:40:15;5.97;;;4.57;;
47329;SDS011;33060;50.178;7.570;2023-02-28T14:42:55;5.27;;;4.60;;
47329;SDS011;33060;50.178;7.570;2023-02-28T14:45:27;6.53;;;4.80;;
47329;SDS011;33060;50.178;7.570;2023-02-28T14:47:57;6.23;;;5.13;;
47329;SDS011;33060;50.178;7.570;2023-02-28T14:50:31;6.33;;;4.90;;
47329;SDS011;33060;50.178;7.570;2023-02-28T14:53:01;5.90;;;4.90;;
47329;SDS011;33060;50.178;7.570;2023-02-28T14:55:32;6.80;;;4.60;;
47329;SDS011;33060;50.178;7.570;2023-02-28T14:58:02;6.40;;;4.73;;
47329;SDS011;33060;50.178;7.570;2023-02-28T15:00:33;5.60;;;4.53;;
47329;SDS011;33060;50.178;7.570;2023-02-28T15:03:19;6.17;;;4.83;;
47329;SDS011;33060;50.178;7.570;2023-02-28T15:06:11;6.07;;;4.73;;
47329;SDS011;33060;50.178;7.570;2023-02-28T15:08:44;6.27;;;5.17;;
47329;SDS011;33060;50.178;7.570;2023-02-28T15:11:15;6.00;;;4.70;;
47329;SDS011;33060;50.178;7.570;2023-02-28T15:13:49;6.00;;;4.53;;
47329;SDS011;33060;50.178;7.570;2023-02-28T15:16:19;5.67;;;4.33;;
47329;SDS011;33060;50.178;7.570;2023-02-28T15:21:23;7.80;;;4.43;;
47329;SDS011;33060;50.178;7.570;2023-02-28T15:24:04;6.30;;;5.20;;
47329;SDS011;33060;50.178;7.570;2023-02-28T15:26:39;5.50;;;4.87;;
47329;SDS011;33060;50.178;7.570;2023-02-28T15:29:10;6.20;;;5.03;;
47329;SDS011;33060;50.178;7.570;2023-02-28T15:31:45;6.27;;;4.70;;
47329;SDS011;33060;50.178;7.570;2023-02-28T15:34:33;6.20;;;4.63;;
47329;SDS011;33060;50.178;7.570;2023-02-28T15:39:53;7.33;;;5.23;;
47329;SDS011;33060;50.178;7.570;2023-02-28T15:42:22;6.87;;;5.30;;
47329;SDS011;33060;50.178;7.570;2023-02-28T15:44:53;5.33;;;4.43;;
47329;SDS011;33060;50.178;7.570;2023-02-28T15:47:24;5.90;;;4.63;;
47329;SDS011;33060;50.178;7.570;2023-02-28T15:50:00;5.20;;;4.70;;
47329;SDS011;33060;50.178;7.570;2023-02-28T15:52:37;6.10;;;5.07;;
47329;SDS011;33060;50.178;7.570;2023-02-28T15:55:20;5.83;;;4.50;;
47329;SDS011;33060;50.178;7.570;2023-02-28T15:57:50;5.47;;;4.47;;
47329;SDS011;33060;50.178;7.570;2023-02-28T16:00:24;5.90;;;4.67;;
47329;SDS011;33060;50.178;7.570;2023-02-28T16:02:51;5.37;;;4.60;;
47329;SDS011;33060;50.178;7.570;2023-02-28T16:05:26;6.40;;;4.27;;
47329;SDS011;33060;50.178;7.570;2023-02-28T16:08:15;5.90;;;4.43;;
47329;SDS011;33060;50.178;7.570;2023-02-28T16:10:41;5.07;;;4.30;;
47329;SDS011;33060;50.178;7.570;2023-02-28T16:13:08;4.57;;;4.00;;
47329;SDS011;33060;50.178;7.570;2023-02-28T16:15:41;7.13;;;4.80;;
47329;SDS011;33060;50.178;7.570;2023-02-28T16:18:12;5.60;;;4.70;;
47329;SDS011;33060;50.178;7.570;2023-02-28T16:20:40;5.17;;;4.23;;
47329;SDS011;33060;50.178;7.570;2023-02-28T16:23:07;4.77;;;4.20;;
47329;SDS011;33060;50.178;7.570;2023-02-28T16:25:35;4.90;;;4.27;;
47329;SDS011;33060;50.178;7.570;2023-02-28T16:28:03;4.77;;;4.17;;
47329;SDS011;33060;50.178;7.570;2023-02-28T16:30:34;5.90;;;4.27;;
47329;SDS011;33060;50.178;7.570;2023-02-28T16:33:01;5.17;;;4.67;;
47329;SDS011;33060;50.178;7.570;2023-02-28T16:35:27;5.80;;;4.37;;
47329;SDS011;33060;50.178;7.570;2023-02-28T16:37:54;4.87;;;4.37;;
47329;SDS011;33060;50.178;7.570;2023-02-28T16:40:22;5.40;;;4.27;;
47329;SDS011;33060;50.178;7.570;2023-02-28T16:42:52;6.83;;;4.57;;
47329;SDS011;33060;50.178;7.570;2023-02-28T16:45:22;5.70;;;4.20;;
47329;SDS011;33060;50.178;7.570;2023-02-28T16:47:50;6.10;;;4.57;;
47329;SDS011;33060;50.178;7.570;2023-02-28T16:50:18;4.93;;;3.90;;
47329;SDS011;33060;50.178;7.570;2023-02-28T16:52:46;5.37;;;4.70;;
47329;SDS011;33060;50.178;7.570;2023-02-28T16:55:14;5.77;;;4.20;;
47329;SDS011;33060;50.178;7.570;2023-02-28T16:57:41;5.00;;;4.07;;
47329;SDS011;33060;50.178;7.570;2023-02-28T17:00:10;5.50;;;3.97;;
47329;SDS011;33060;50.178;7.570;2023-02-28T17:02:40;4.60;;;4.10;;
47329;SDS011;33060;50.178;7.570;2023-02-28T17:05:10;4.73;;;4.23;;
47329;SDS011;33060;50.178;7.570;2023-02-28T17:07:38;5.80;;;4.23;;
47329;SDS011;33060;50.178;7.570;2023-02-28T17:10:13;5.20;;;4.43;;
47329;SDS011;33060;50.178;7.570;2023-02-28T17:12:39;5.50;;;4.40;;
47329;SDS011;33060;50.178;7.570;2023-02-28T17:15:06;5.63;;;4.33;;
47329;SDS011;33060;50.178;7.570;2023-02-28T17:17:34;6.20;;;4.67;;
47329;SDS011;33060;50.178;7.570;2023-02-28T17:20:01;6.50;;;4.93;;
47329;SDS011;33060;50.178;7.570;2023-02-28T17:22:29;6.57;;;4.27;;
47329;SDS011;33060;50.178;7.570;2023-02-28T17:24:55;5.40;;;4.17;;
47329;SDS011;33060;50.178;7.570;2023-02-28T17:27:22;5.20;;;4.30;;
47329;SDS011;33060;50.178;7.570;2023-02-28T17:29:49;6.27;;;4.73;;
47329;SDS011;33060;50.178;7.570;2023-02-28T17:32:15;6.80;;;4.87;;
47329;SDS011;33060;50.178;7.570;2023-02-28T17:34:44;5.57;;;4.33;;
47329;SDS011;33060;50.178;7.570;2023-02-28T17:37:12;5.57;;;4.27;;
47329;SDS011;33060;50.178;7.570;2023-02-28T17:39:39;6.33;;;4.70;;
47329;SDS011;33060;50.178;7.570;2023-02-28T17:42:06;7.20;;;4.70;;
47329;SDS011;33060;50.178;7.570;2023-02-28T17:44:32;7.07;;;4.63;;